Time;durP1;ratioP1;P1;durP2;ratioP2;P2;SDS_P1;SDS_P2;PMS_P1;PMS_P2;Temp;Humidity;BMP_temperature;BMP_pressure;BME280_temperature;BME280_humidity;BME280_pressure;Samples;Min_cycle;Max_cycle;Signal;HPM_P1;HPM_P2
2023/04/22 00:00:13;;;;;;;3.72;2.60;;;;;;;12.18;91.33;98858.97;332404;29;4676;-69
2023/04/22 00:00:25;;;;;;;4.90;2.58;;;;;;;12.22;91.74;98854.47;329072;29;18798;-69
2023/04/22 00:00:37;;;;;;;5.10;2.53;;;;;;;12.24;91.82;98852.63;328895;29;18903;-69
2023/04/22 00:00:49;;;;;;;3.65;2.53;;;;;;;12.25;92.08;98849.06;332636;29;4587;-69
2023/04/22 00:01:01;;;;;;;3.45;2.55;;;;;;;12.31;92.41;98855.72;332070;29;5453;-69
2023/04/22 00:01:14;;;;;;;4.25;2.67;;;;;;;12.33;91.83;98851.28;330152;29;18203;-69
2023/04/22 00:01:26;;;;;;;4.30;2.50;;;;;;;12.34;91.98;98856.41;332284;29;4836;-69
2023/04/22 00:01:37;;;;;;;3.53;2.63;;;;;;;12.39;91.91;98857.03;329293;29;9409;-69
2023/04/22 00:01:50;;;;;;;3.25;2.50;;;;;;;12.44;91.73;98858.56;333144;29;4741;-69
2023/04/22 00:02:02;;;;;;;3.45;2.60;;;;;;;12.46;91.50;98859.31;330416;29;9889;-70
2023/04/22 00:02:15;;;;;;;3.55;2.65;;;;;;;12.49;91.33;98856.53;330239;29;4916;-69
2023/04/22 00:02:28;;;;;;;3.58;2.67;;;;;;;12.51;91.30;98859.88;328702;29;18191;-69
2023/04/22 00:02:40;;;;;;;5.05;2.70;;;;;;;12.52;91.26;98861.59;331952;29;4979;-70
2023/04/22 00:02:52;;;;;;;5.32;2.72;;;;;;;12.57;91.24;98859.56;329365;29;15850;-69
2023/04/22 00:03:04;;;;;;;4.90;2.97;;;;;;;12.59;91.16;98852.50;332450;29;4892;-69
2023/04/22 00:03:16;;;;;;;3.88;2.80;;;;;;;12.62;91.42;98864.56;332144;29;5659;-69
2023/04/22 00:03:29;;;;;;;4.05;2.78;;;;;;;12.56;90.78;98861.34;330613;29;18299;-69
2023/04/22 00:03:43;;;;;;;4.25;2.63;;;;;;;12.57;90.67;98855.19;332730;29;5366;-69
2023/04/22 00:03:55;;;;;;;5.00;2.70;;;;;;;12.56;90.67;98857.91;330630;29;18067;-70
2023/04/22 00:04:07;;;;;;;5.00;2.85;;;;;;;12.58;90.81;98856.06;330123;29;18112;-69
2023/04/22 00:04:20;;;;;;;4.45;2.80;;;;;;;12.58;90.43;98861.25;333127;29;5833;-69
2023/04/22 00:04:33;;;;;;;4.78;2.70;;;;;;;12.51;90.59;98854.69;326560;29;18379;-69
2023/04/22 00:04:46;;;;;;;5.00;2.70;;;;;;;12.47;90.89;98859.22;330140;29;17610;-69
2023/04/22 00:05:00;;;;;;;4.85;2.67;;;;;;;12.43;91.53;98856.84;330181;29;18186;-69
2023/04/22 00:05:13;;;;;;;3.88;2.53;;;;;;;12.46;91.57;98851.50;330852;29;9420;-69
2023/04/22 00:05:30;;;;;;;3.58;2.53;;;;;;;12.50;91.96;98856.44;329701;29;17702;-69
2023/04/22 00:05:43;;;;;;;3.63;2.67;;;;;;;12.47;91.49;98859.22;330882;29;10151;-69
2023/04/22 00:05:55;;;;;;;2.88;2.58;;;;;;;12.47;91.17;98853.16;330210;29;17989;-69
2023/04/22 00:06:08;;;;;;;3.33;2.50;;;;;;;12.45;90.98;98861.06;329626;29;18068;-69
2023/04/22 00:06:20;;;;;;;3.30;2.63;;;;;;;12.42;91.24;98852.56;331374;29;4824;-69
2023/04/22 00:06:33;;;;;;;3.60;2.80;;;;;;;12.36;91.32;98857.19;332156;29;10039;-69
2023/04/22 00:06:45;;;;;;;3.30;2.80;;;;;;;12.33;91.40;98854.72;330654;29;18181;-69
2023/04/22 00:06:57;;;;;;;3.17;2.85;;;;;;;12.32;90.90;98854.81;330902;29;18010;-70
2023/04/22 00:07:09;;;;;;;3.65;3.05;;;;;;;12.30;91.66;98857.50;331678;29;4699;-69
2023/04/22 00:07:21;;;;;;;3.85;2.97;;;;;;;12.34;91.65;98853.81;332747;29;4696;-69
2023/04/22 00:07:33;;;;;;;5.00;3.00;;;;;;;12.30;91.68;98854.91;330691;29;18316;-69
2023/04/22 00:07:45;;;;;;;5.32;3.10;;;;;;;12.28;91.21;98859.34;333255;29;4829;-69
2023/04/22 00:07:57;;;;;;;4.95;3.00;;;;;;;12.32;91.88;98860.88;330690;29;18708;-69
2023/04/22 00:08:09;;;;;;;4.53;2.75;;;;;;;12.25;92.01;98854.28;333079;29;5223;-69
2023/04/22 00:08:21;;;;;;;4.13;2.75;;;;;;;12.24;92.15;98863.03;333361;29;5404;-69
2023/04/22 00:08:33;;;;;;;4.93;2.80;;;;;;;12.22;91.09;98854.47;329274;29;18068;-70
2023/04/22 00:08:45;;;;;;;4.70;2.70;;;;;;;12.26;90.94;98855.16;328888;29;4634;-69
2023/04/22 00:08:57;;;;;;;3.83;2.70;;;;;;;12.26;90.79;98858.59;330755;29;16384;-70
2023/04/22 00:09:09;;;;;;;3.30;2.60;;;;;;;12.31;90.80;98855.72;332644;29;4714;-69
2023/04/22 00:09:21;;;;;;;3.20;2.50;;;;;;;12.34;91.02;98853.81;332600;29;5209;-69
2023/04/22 00:09:33;;;;;;;3.97;2.67;;;;;;;12.32;90.73;98852.22;330083;29;18147;-69
2023/04/22 00:09:45;;;;;;;4.50;2.85;;;;;;;12.28;91.24;98856.75;332295;29;5382;-69
2023/04/22 00:09:57;;;;;;;4.70;2.90;;;;;;;12.30;91.35;98856.66;330366;29;4832;-69
2023/04/22 00:10:10;;;;;;;3.92;2.90;;;;;;;12.25;91.64;98854.28;332231;29;5213;-70
2023/04/22 00:10:22;;;;;;;3.80;2.97;;;;;;;12.29;91.97;98860.19;330596;29;10360;-70
2023/04/22 00:10:34;;;;;;;4.50;2.95;;;;;;;12.32;92.03;98847.84;330322;29;4839;-69
2023/04/22 00:10:53;;;;;;;4.73;3.17;;;;;;;12.30;91.00;98852.28;333373;29;4609;-69
2023/04/22 00:11:05;;;;;;;3.90;2.97;;;;;;;12.14;90.17;98856.63;328708;29;17697;-69
2023/04/22 00:11:17;;;;;;;3.63;2.90;;;;;;;12.12;89.75;98858.47;329550;29;9913;-70
2023/04/22 00:11:29;;;;;;;3.55;2.78;;;;;;;12.12;89.36;98858.47;331806;29;4641;-69
2023/04/22 00:11:41;;;;;;;3.95;3.00;;;;;;;12.13;89.21;98849.72;332024;29;5653;-69
2023/04/22 00:11:53;;;;;;;3.95;2.90;;;;;;;12.18;89.84;98851.16;330753;29;18158;-69
2023/04/22 00:12:05;;;;;;;4.25;2.78;;;;;;;12.21;90.07;98852.75;332892;29;4809;-70
2023/04/22 00:12:17;;;;;;;4.70;2.85;;;;;;;12.27;90.44;98854.22;330645;29;10739;-70
2023/04/22 00:12:29;;;;;;;3.88;2.90;;;;;;;12.31;90.48;98859.16;332830;29;4706;-69
2023/04/22 00:12:41;;;;;;;3.67;2.92;;;;;;;12.34;90.32;98853.81;331966;29;4702;-70
2023/04/22 00:12:53;;;;;;;4.40;2.75;;;;;;;12.35;90.72;98855.50;330829;29;17983;-70
2023/04/22 00:13:05;;;;;;;4.32;2.72;;;;;;;12.35;91.05;98852.91;332442;29;5136;-70
2023/04/22 00:13:17;;;;;;;3.63;2.70;;;;;;;12.38;91.14;98850.13;330829;29;10762;-70
2023/04/22 00:13:29;;;;;;;3.13;2.70;;;;;;;12.44;91.43;98855.94;333560;29;4552;-70
2023/04/22 00:13:41;;;;;;;3.33;2.60;;;;;;;12.46;90.89;98848.88;333254;29;5268;-69
2023/04/22 00:13:53;;;;;;;3.70;2.80;;;;;;;12.50;91.00;98858.22;329682;29;11057;-70
2023/04/22 00:14:05;;;;;;;3.67;2.80;;;;;;;12.50;90.96;98850.41;332052;29;5378;-70
2023/04/22 00:14:17;;;;;;;3.72;2.90;;;;;;;12.53;90.92;98853.66;329385;29;9673;-70
2023/04/22 00:14:29;;;;;;;3.50;2.92;;;;;;;12.55;91.26;98850.97;331967;29;4666;-70
2023/04/22 00:14:41;;;;;;;4.17;3.00;;;;;;;12.56;91.10;98855.28;332397;29;5930;-70
2023/04/22 00:14:53;;;;;;;5.10;3.00;;;;;;;12.56;90.83;98848.31;330159;29;18891;-70
2023/04/22 00:15:06;;;;;;;4.70;2.85;;;;;;;12.59;90.69;98848.13;333835;29;5505;-69
2023/04/22 00:15:20;;;;;;;3.67;2.63;;;;;;;12.61;90.87;98845.44;325220;29;6287;-69
2023/04/22 00:15:32;;;;;;;3.00;2.55;;;;;;;12.63;90.67;98854.03;330343;29;18012;-69
2023/04/22 00:15:45;;;;;;;3.13;2.63;;;;;;;12.65;90.95;98852.16;331438;29;5284;-69
2023/04/22 00:16:04;;;;;;;3.38;2.80;;;;;;;12.66;91.05;98848.66;329730;29;10720;-70
2023/04/22 00:16:16;;;;;;;3.15;2.80;;;;;;;12.69;90.90;98843.25;329982;29;17912;-70
2023/04/22 00:16:28;;;;;;;3.38;2.88;;;;;;;12.70;90.67;98847.56;330449;29;17892;-70
2023/04/22 00:16:40;;;;;;;4.22;2.85;;;;;;;12.68;90.78;98846.81;332709;29;4567;-70
2023/04/22 00:16:52;;;;;;;4.20;2.78;;;;;;;12.65;90.95;98846.97;330827;29;18412;-70
2023/04/22 00:17:05;;;;;;;3.42;2.78;;;;;;;12.58;91.02;98845.63;332322;29;4864;-70
2023/04/22 00:17:17;;;;;;;3.45;2.80;;;;;;;12.58;91.41;98843.84;330755;29;17593;-70
2023/04/22 00:17:30;;;;;;;3.67;2.70;;;;;;;12.51;91.28;98839.03;333219;29;4568;-70
2023/04/22 00:17:42;;;;;;;3.35;2.60;;;;;;;12.49;91.31;98840.88;333624;29;6148;-69
2023/04/22 00:17:54;;;;;;;2.90;2.60;;;;;;;12.47;91.68;98845.34;330526;29;17886;-70
2023/04/22 00:18:12;;;;;;;2.90;2.60;;;;;;;12.50;91.33;98842.59;331988;29;4684;-69
2023/04/22 00:18:24;;;;;;;3.30;2.83;;;;;;;12.45;91.52;98849.78;328891;29;17755;-70
2023/04/22 00:18:36;;;;;;;4.13;3.00;;;;;;;12.45;91.74;98845.41;332251;29;5465;-70
2023/04/22 00:18:48;;;;;;;4.03;3.05;;;;;;;12.44;91.98;98842.91;329917;29;19620;-70
2023/04/22 00:19:00;;;;;;;3.78;2.90;;;;;;;12.45;91.58;98845.41;332991;29;5421;-70
2023/04/22 00:19:12;;;;;;;3.38;2.90;;;;;;;12.48;91.95;98844.44;330926;29;5598;-70
2023/04/22 00:19:25;;;;;;;4.10;2.75;;;;;;;12.45;91.60;98849.78;332097;29;4684;-70
2023/04/22 00:19:37;;;;;;;4.50;2.90;;;;;;;12.46;91.77;98849.72;329816;29;5822;-70
2023/04/22 00:19:50;;;;;;;6.00;3.10;;;;;;;12.46;90.97;98848.88;332909;29;4504;-70
2023/04/22 00:20:02;;;;;;;5.32;3.10;;;;;;;12.45;91.02;98841.97;332526;29;4718;-69
2023/04/22 00:20:15;;;;;;;3.67;2.90;;;;;;;12.45;91.20;98855.00;329122;29;17690;-70
2023/04/22 00:20:28;;;;;;;3.90;2.90;;;;;;;12.44;91.50;98848.13;332002;29;4648;-70
2023/04/22 00:20:42;;;;;;;4.43;2.97;;;;;;;12.48;91.50;98852.25;329276;29;19310;-70
2023/04/22 00:20:54;;;;;;;4.20;2.90;;;;;;;12.50;91.43;98853.00;328060;29;18038;-70
2023/04/22 00:21:06;;;;;;;4.60;2.85;;;;;;;12.54;91.52;98852.75;332350;29;4777;-69
2023/04/22 00:21:18;;;;;;;5.60;2.90;;;;;;;12.57;91.27;98851.75;328303;29;17989;-69
2023/04/22 00:21:31;;;;;;;5.57;2.83;;;;;;;12.59;91.36;98849.91;332892;29;4762;-70
2023/04/22 00:21:43;;;;;;;5.05;2.90;;;;;;;12.61;91.55;98850.66;331257;29;5574;-70
2023/04/22 00:21:55;;;;;;;4.97;3.10;;;;;;;12.62;91.70;98852.34;331418;29;5414;-70
2023/04/22 00:22:07;;;;;;;4.35;3.08;;;;;;;12.62;91.32;98852.34;331221;29;4711;-70
2023/04/22 00:22:20;;;;;;;4.07;2.92;;;;;;;12.66;91.08;98848.66;332262;29;17160;-69
2023/04/22 00:22:32;;;;;;;4.10;2.80;;;;;;;12.69;90.69;98851.06;331173;29;5619;-70
2023/04/22 00:22:44;;;;;;;4.25;2.90;;;;;;;12.68;91.35;98852.03;333395;29;5485;-70
2023/04/22 00:22:56;;;;;;;3.45;2.83;;;;;;;12.71;91.24;98851.00;333263;29;4741;-69
2023/04/22 00:23:09;;;;;;;3.20;2.63;;;;;;;12.73;91.55;98850.00;329814;29;18256;-70
2023/04/22 00:23:21;;;;;;;3.70;2.70;;;;;;;12.75;91.25;98852.53;331449;29;5034;-70
2023/04/22 00:23:33;;;;;;;3.90;2.90;;;;;;;12.77;91.58;98845.44;329647;29;18198;-70
2023/04/22 00:23:45;;;;;;;3.47;2.80;;;;;;;12.78;91.40;98849.75;332375;29;4714;-70
2023/04/22 00:23:57;;;;;;;3.70;2.80;;;;;;;12.78;91.45;98847.97;330084;29;17367;-70
2023/04/22 00:24:10;;;;;;;3.35;2.75;;;;;;;12.82;91.40;98845.19;333349;29;4663;-69
2023/04/22 00:24:22;;;;;;;3.72;2.90;;;;;;;12.84;90.92;98854.63;330687;29;9553;-70
2023/04/22 00:24:34;;;;;;;3.80;2.90;;;;;;;12.87;91.27;98851.84;333298;29;5216;-70
2023/04/22 00:24:46;;;;;;;3.83;2.78;;;;;;;12.88;90.96;98850.94;333345;29;5064;-70
2023/04/22 00:24:58;;;;;;;4.05;2.72;;;;;;;12.91;90.88;98852.53;330983;29;18061;-70
2023/04/22 00:25:10;;;;;;;4.03;2.80;;;;;;;12.92;91.02;98849.84;333447;29;4663;-70
2023/04/22 00:25:22;;;;;;;3.67;2.80;;;;;;;12.95;91.03;98851.44;329906;29;5291;-70
2023/04/22 00:25:34;;;;;;;3.20;2.80;;;;;;;12.96;90.90;98848.75;332255;29;4682;-70
2023/04/22 00:25:46;;;;;;;3.92;2.80;;;;;;;12.97;90.45;98853.03;331772;29;4798;-70
2023/04/22 00:25:59;;;;;;;3.83;2.80;;;;;;;12.92;89.68;98844.63;331060;29;4781;-70
2023/04/22 00:26:11;;;;;;;3.47;2.65;;;;;;;12.95;90.01;98848.81;333560;29;5620;-70
2023/04/22 00:26:23;;;;;;;4.93;2.80;;;;;;;12.97;89.87;98836.53;330846;29;18357;-70
2023/04/22 00:26:35;;;;;;;4.68;2.60;;;;;;;12.98;90.18;98844.28;333392;29;5357;-70
2023/04/22 00:26:47;;;;;;;4.60;2.67;;;;;;;13.01;90.14;98843.25;332646;29;5097;-70
2023/04/22 00:26:59;;;;;;;3.85;2.80;;;;;;;13.02;89.90;98841.50;329197;29;17771;-70
2023/04/22 00:27:11;;;;;;;4.25;2.75;;;;;;;13.04;89.79;98843.09;333545;29;4683;-70
2023/04/22 00:27:23;;;;;;;4.50;2.88;;;;;;;13.04;89.91;98843.09;329537;29;18077;-70
2023/04/22 00:27:35;;;;;;;5.05;3.20;;;;;;;13.07;90.07;98837.69;331745;29;4522;-70
2023/04/22 00:27:47;;;;;;;4.85;3.15;;;;;;;13.07;90.04;98848.13;330250;29;11581;-70
2023/04/22 00:28:00;;;;;;;4.28;3.00;;;;;;;13.05;90.14;98836.13;333059;29;4508;-70
2023/04/22 00:28:13;;;;;;;3.80;2.90;;;;;;;13.04;90.25;98839.63;329479;29;18268;-70
2023/04/22 00:28:25;;;;;;;3.47;2.80;;;;;;;13.07;90.42;98848.13;332081;29;4675;-70
2023/04/22 00:28:37;;;;;;;3.40;2.83;;;;;;;13.08;90.38;98838.53;327985;29;5456;-70
2023/04/22 00:28:49;;;;;;;3.63;2.80;;;;;;;13.08;90.03;98844.63;331188;29;18228;-70
2023/04/22 00:29:01;;;;;;;3.60;2.88;;;;;;;13.10;89.92;98837.53;333270;29;4869;-70
2023/04/22 00:29:13;;;;;;;3.10;2.53;;;;;;;13.11;89.90;98839.22;330465;29;17906;-70
2023/04/22 00:29:25;;;;;;;3.85;2.60;;;;;;;13.14;89.82;98846.06;332923;29;5304;-70
2023/04/22 00:29:38;;;;;;;4.05;2.65;;;;;;;13.13;89.78;98845.19;333092;29;5400;-70
2023/04/22 00:29:50;;;;;;;4.20;2.80;;;;;;;13.15;89.61;98838.13;330141;29;17726;-70
2023/04/22 00:30:03;;;;;;;3.25;2.80;;;;;;;13.16;89.58;98841.59;330984;29;8827;-70
2023/04/22 00:30:15;;;;;;;2.90;2.60;;;;;;;13.16;89.51;98839.81;333489;29;4577;-70
2023/04/22 00:30:27;;;;;;;2.90;2.60;;;;;;;13.16;89.65;98836.38;330555;29;5937;-70
2023/04/22 00:30:39;;;;;;;3.00;2.65;;;;;;;13.16;89.54;98837.19;333303;29;5114;-70
2023/04/22 00:30:51;;;;;;;3.03;2.60;;;;;;;13.17;89.25;98838.03;333393;29;4595;-70
2023/04/22 00:31:03;;;;;;;2.88;2.40;;;;;;;13.18;89.30;98837.13;330555;29;18420;-70
2023/04/22 00:31:15;;;;;;;3.53;2.60;;;;;;;13.09;88.36;98841.06;332915;29;4653;-70
2023/04/22 00:31:27;;;;;;;4.53;2.80;;;;;;;13.05;87.75;98844.78;330651;29;4669;-70
2023/04/22 00:31:39;;;;;;;4.57;2.80;;;;;;;12.98;87.64;98836.47;333357;29;5041;-70
2023/04/22 00:31:51;;;;;;;3.03;2.65;;;;;;;12.92;87.29;98841.19;334208;29;4754;-70
2023/04/22 00:32:04;;;;;;;3.30;2.80;;;;;;;12.82;87.39;98837.38;331674;29;18062;-70
2023/04/22 00:32:16;;;;;;;3.17;2.75;;;;;;;12.64;87.44;98840.06;334677;29;4578;-70
2023/04/22 00:32:28;;;;;;;3.35;2.80;;;;;;;12.53;87.81;98835.41;331339;29;18377;-70
2023/04/22 00:32:40;;;;;;;3.83;2.90;;;;;;;12.52;87.90;98843.34;333190;29;5944;-70
2023/04/22 00:32:52;;;;;;;3.75;2.80;;;;;;;12.50;88.41;98837.38;332101;29;6801;-70
2023/04/22 00:33:04;;;;;;;3.58;2.55;;;;;;;12.56;88.64;98837.03;330919;29;18064;-70
2023/04/22 00:33:16;;;;;;;5.38;2.53;;;;;;;12.62;88.82;98839.31;333363;29;4682;-70
2023/04/22 00:33:28;;;;;;;5.22;2.63;;;;;;;12.55;88.15;98840.56;329963;29;10937;-70
2023/04/22 00:33:41;;;;;;;4.32;2.63;;;;;;;12.46;87.20;98841.06;332404;29;4665;-70
2023/04/22 00:33:53;;;;;;;3.72;2.63;;;;;;;12.47;87.17;98843.56;330500;29;18162;-70
2023/04/22 00:34:05;;;;;;;4.22;2.67;;;;;;;12.46;86.72;98835.84;333106;29;4577;-70
2023/04/22 00:34:17;;;;;;;4.00;2.70;;;;;;;12.47;86.99;98840.13;333308;29;4527;-70
2023/04/22 00:34:29;;;;;;;3.22;2.60;;;;;;;12.46;86.78;98835.84;330180;29;19224;-70
2023/04/22 00:34:41;;;;;;;2.75;2.47;;;;;;;12.47;86.87;98842.72;332431;29;4683;-70
2023/04/22 00:34:53;;;;;;;2.78;2.50;;;;;;;12.50;87.18;98837.38;328871;29;18189;-70
2023/04/22 00:35:06;;;;;;;4.47;2.70;;;;;;;12.54;87.65;98844.09;332663;29;4562;-70
2023/04/22 00:35:17;;;;;;;4.47;2.50;;;;;;;12.57;87.68;98836.09;330233;29;4642;-70
2023/04/22 00:35:29;;;;;;;4.63;2.60;;;;;;;12.48;86.31;98839.22;332494;29;4670;-70
2023/04/22 00:35:41;;;;;;;4.05;2.72;;;;;;;12.43;86.45;98841.22;332203;29;4568;-70
2023/04/22 00:35:53;;;;;;;3.72;2.83;;;;;;;12.45;86.50;98839.38;330465;29;18112;-70
2023/04/22 00:36:05;;;;;;;3.90;2.72;;;;;;;12.44;86.56;98842.91;332740;29;5453;-70
2023/04/22 00:36:17;;;;;;;3.65;2.60;;;;;;;12.43;86.18;98842.03;331264;29;4731;-70
2023/04/22 00:36:30;;;;;;;4.57;2.60;;;;;;;12.43;86.56;98841.22;332638;29;4639;-70
2023/04/22 00:36:43;;;;;;;4.10;2.65;;;;;;;12.44;86.78;98843.75;332755;29;4697;-70
2023/04/22 00:36:55;;;;;;;3.67;2.72;;;;;;;12.48;86.55;98841.81;325048;29;18252;-70
2023/04/22 00:37:07;;;;;;;3.10;2.70;;;;;;;12.49;87.11;98843.50;331037;29;9592;-70
2023/04/22 00:37:19;;;;;;;2.90;2.60;;;;;;;12.52;87.09;98840.75;332504;29;4672;-70
2023/04/22 00:37:32;;;;;;;2.90;2.60;;;;;;;12.53;87.62;98838.03;332489;29;4583;-70
2023/04/22 00:37:44;;;;;;;3.00;2.70;;;;;;;12.57;87.53;98838.72;329369;29;18346;-70
2023/04/22 00:37:56;;;;;;;3.10;2.70;;;;;;;12.61;87.60;98836.78;331784;29;4607;-70
2023/04/22 00:38:08;;;;;;;3.10;2.70;;;;;;;12.64;87.40;98840.06;329603;29;9678;-72
2023/04/22 00:38:20;;;;;;;3.40;2.60;;;;;;;12.60;86.86;98841.16;332435;29;5183;-70
2023/04/22 00:38:32;;;;;;;3.58;2.72;;;;;;;12.62;86.97;98836.72;332238;29;5432;-70
2023/04/22 00:38:48;;;;;;;4.35;2.80;;;;;;;12.64;87.16;98834.84;329168;29;18839;-70
2023/04/22 00:39:00;;;;;;;4.75;2.70;;;;;;;12.65;87.18;98841.75;329403;29;18234;-70
2023/04/22 00:39:13;;;;;;;5.72;2.70;;;;;;;12.69;87.34;98842.41;330397;29;9975;-70
2023/04/22 00:39:25;;;;;;;4.93;2.58;;;;;;;12.71;87.36;98841.41;330351;29;18040;-70
2023/04/22 00:39:38;;;;;;;4.35;2.65;;;;;;;12.70;87.70;98844.13;333923;29;4695;-71
2023/04/22 00:39:50;;;;;;;4.00;2.83;;;;;;;12.72;87.65;98837.88;331915;29;19574;-70
2023/04/22 00:40:02;;;;;;;3.80;2.70;;;;;;;12.76;87.60;98836.78;333892;29;4659;-70
2023/04/22 00:40:14;;;;;;;3.35;2.33;;;;;;;12.77;87.25;98835.84;332068;29;17603;-71
2023/04/22 00:40:26;;;;;;;3.17;2.40;;;;;;;12.72;86.53;98837.06;334500;29;5402;-69
2023/04/22 00:40:39;;;;;;;3.22;2.47;;;;;;;12.71;86.00;98835.34;332213;29;18152;-71
2023/04/22 00:40:50;;;;;;;4.30;2.53;;;;;;;12.64;85.51;98834.84;331510;29;19252;-70
2023/04/22 00:41:03;;;;;;;4.07;2.50;;;;;;;12.65;85.80;98841.75;330860;29;9885;-70
2023/04/22 00:41:16;;;;;;;3.75;2.42;;;;;;;12.56;85.78;98837.88;333747;29;5339;-70
2023/04/22 00:41:29;;;;;;;3.13;2.45;;;;;;;12.50;85.61;98838.22;331447;29;15831;-70
2023/04/22 00:41:42;;;;;;;3.10;2.30;;;;;;;12.41;85.47;98833.47;335199;29;5417;-70
2023/04/22 00:41:54;;;;;;;2.60;2.30;;;;;;;12.37;85.57;98832.81;332360;29;18047;-70
2023/04/22 00:42:09;;;;;;;2.95;2.58;;;;;;;12.35;85.76;98834.66;334799;29;5242;-70
2023/04/22 00:42:21;;;;;;;3.20;2.80;;;;;;;12.27;85.78;98836.81;331879;29;18743;-70
2023/04/22 00:42:33;;;;;;;3.05;2.75;;;;;;;12.17;85.74;98833.88;331759;29;18874;-70
2023/04/22 00:42:48;;;;;;;2.65;2.42;;;;;;;12.09;86.96;98837.75;334002;29;4628;-70
2023/04/22 00:43:01;;;;;;;4.30;2.40;;;;;;;12.08;86.68;98838.72;330907;29;19071;-70
2023/04/22 00:43:15;;;;;;;5.32;2.67;;;;;;;12.09;87.40;98842.97;331313;29;18237;-70
2023/04/22 00:43:27;;;;;;;4.07;2.78;;;;;;;12.08;86.72;98841.31;333941;29;5390;-70
2023/04/22 00:43:39;;;;;;;3.40;2.67;;;;;;;12.10;87.20;98844.69;330118;29;18896;-70
2023/04/22 00:43:52;;;;;;;3.50;2.55;;;;;;;12.08;86.82;98839.53;332841;29;4722;-70
2023/04/22 00:44:07;;;;;;;3.92;2.45;;;;;;;12.03;87.21;98845.91;330662;29;18185;-70
2023/04/22 00:44:19;;;;;;;5.78;2.50;;;;;;;11.96;87.33;98846.22;329733;29;17932;-70
2023/04/22 00:44:32;;;;;;;5.43;2.42;;;;;;;11.99;87.46;98843.47;331559;29;5071;-70
2023/04/22 00:44:45;;;;;;;3.63;2.58;;;;;;;12.08;87.67;98842.16;329579;29;19194;-70
2023/04/22 00:44:58;;;;;;;5.10;2.70;;;;;;;12.15;87.93;98842.66;333515;29;5430;-70
2023/04/22 00:45:13;;;;;;;4.50;2.50;;;;;;;12.20;88.24;98845.88;331689;29;19070;-70
2023/04/22 00:45:25;;;;;;;4.35;2.55;;;;;;;12.21;88.04;98847.53;328822;29;19110;-71
2023/04/22 00:45:38;;;;;;;4.05;2.65;;;;;;;12.11;87.30;98846.34;331392;29;4545;-71
2023/04/22 00:45:50;;;;;;;3.42;2.60;;;;;;;12.05;87.47;98844.06;330841;29;17489;-70
2023/04/22 00:46:02;;;;;;;3.53;2.50;;;;;;;12.01;88.01;98842.53;331881;29;4715;-70
2023/04/22 00:46:21;;;;;;;3.45;2.53;;;;;;;12.08;88.18;98844.75;329177;29;18026;-70
2023/04/22 00:46:34;;;;;;;3.72;2.70;;;;;;;12.11;88.11;98841.13;329789;29;17755;-70
2023/04/22 00:46:47;;;;;;;3.25;2.60;;;;;;;12.11;87.68;98848.94;332433;29;5223;-70
2023/04/22 00:46:59;;;;;;;3.42;2.70;;;;;;;12.08;87.23;98843.91;329331;29;5487;-70
2023/04/22 00:47:11;;;;;;;4.20;2.85;;;;;;;12.09;87.51;98842.97;331934;29;5554;-70
2023/04/22 00:47:25;;;;;;;3.75;2.72;;;;;;;12.12;86.79;98838.47;329630;29;17956;-70
2023/04/22 00:47:38;;;;;;;3.17;2.67;;;;;;;12.14;87.93;98836.63;331088;29;9527;-71
2023/04/22 00:47:51;;;;;;;3.50;2.72;;;;;;;12.13;87.46;98844.50;332156;29;5283;-70
2023/04/22 00:48:03;;;;;;;3.60;2.70;;;;;;;12.18;87.78;98837.31;331098;29;9954;-70
2023/04/22 00:48:16;;;;;;;4.20;2.88;;;;;;;12.21;87.62;98834.53;332065;29;4584;-70
2023/04/22 00:48:29;;;;;;;4.10;2.90;;;;;;;12.23;87.96;98832.69;332214;29;4682;-70
2023/04/22 00:48:41;;;;;;;4.55;3.00;;;;;;;12.27;87.68;98835.97;329588;29;17798;-70
2023/04/22 00:48:54;;;;;;;4.00;3.13;;;;;;;12.30;87.32;98834.06;330630;29;18263;-71
2023/04/22 00:49:07;;;;;;;3.42;3.00;;;;;;;12.33;87.43;98836.47;332684;29;4628;-70
2023/04/22 00:49:19;;;;;;;3.22;2.63;;;;;;;12.33;87.75;98836.47;329812;29;17958;-70
2023/04/22 00:49:31;;;;;;;3.72;2.70;;;;;;;12.36;87.44;98841.53;333660;29;4605;-70
2023/04/22 00:49:43;;;;;;;3.67;2.80;;;;;;;12.40;87.46;98837.00;330195;29;16755;-71
2023/04/22 00:49:55;;;;;;;3.70;2.70;;;;;;;12.42;87.34;98839.53;331984;29;4654;-70
2023/04/22 00:50:07;;;;;;;4.43;2.70;;;;;;;12.44;86.94;98841.13;331759;29;4724;-70
2023/04/22 00:50:19;;;;;;;3.63;2.53;;;;;;;12.48;87.14;98841.81;329387;29;18193;-71
2023/04/22 00:50:31;;;;;;;6.05;2.58;;;;;;;12.50;87.32;98842.59;332404;29;4569;-71
2023/04/22 00:50:45;;;;;;;6.03;2.40;;;;;;;12.46;87.26;98841.06;326914;29;18302;-71
2023/04/22 00:51:00;;;;;;;3.38;2.35;;;;;;;12.51;87.66;98846.84;332854;29;17002;-70
2023/04/22 00:51:11;;;;;;;4.03;2.45;;;;;;;12.52;87.58;98844.19;329511;29;20777;-71
2023/04/22 00:51:23;;;;;;;3.70;2.70;;;;;;;12.54;87.61;98846.72;329214;29;19375;-70
2023/04/22 00:51:35;;;;;;;3.25;2.78;;;;;;;12.55;87.41;98843.16;332855;29;4729;-71
2023/04/22 00:51:47;;;;;;;2.92;2.53;;;;;;;12.51;86.43;98844.25;332671;29;9920;-71
2023/04/22 00:51:59;;;;;;;3.10;2.63;;;;;;;12.44;86.13;98842.91;331352;29;17897;-71
2023/04/22 00:52:11;;;;;;;3.25;2.58;;;;;;;12.37;86.25;98845.84;332762;29;4758;-71
2023/04/22 00:52:23;;;;;;;3.25;2.58;;;;;;;12.34;86.28;98842.56;329495;29;19063;-71
2023/04/22 00:52:35;;;;;;;3.40;2.60;;;;;;;12.29;86.37;98837.56;332061;29;5289;-71
2023/04/22 00:52:47;;;;;;;3.33;2.65;;;;;;;12.25;86.17;98843.84;332036;29;5216;-71
2023/04/22 00:52:59;;;;;;;3.33;2.58;;;;;;;12.26;86.37;98839.50;329005;29;18098;-71
2023/04/22 00:53:11;;;;;;;4.72;2.53;;;;;;;12.24;86.25;98847.41;333097;29;4676;-70
2023/04/22 00:53:23;;;;;;;4.78;2.55;;;;;;;12.21;86.60;98846.72;330754;29;16354;-71
2023/04/22 00:53:35;;;;;;;4.88;2.55;;;;;;;12.17;86.74;98846.03;333395;29;5429;-71
2023/04/22 00:53:47;;;;;;;3.15;2.60;;;;;;;12.16;87.09;98846.97;332335;29;4565;-71
2023/04/22 00:54:00;;;;;;;3.38;2.50;;;;;;;12.17;87.23;98851.22;329803;29;17208;-71
2023/04/22 00:54:14;;;;;;;3.35;2.60;;;;;;;12.16;87.23;98841.75;330666;29;18097;-70
2023/04/22 00:54:27;;;;;;;3.00;2.63;;;;;;;12.15;87.42;98847.88;333034;29;4831;-71
2023/04/22 00:54:39;;;;;;;3.13;2.83;;;;;;;12.17;87.89;98840.81;330251;29;17649;-71
2023/04/22 00:54:51;;;;;;;3.38;2.95;;;;;;;12.17;87.41;98838.22;334253;29;4663;-71
2023/04/22 00:55:04;;;;;;;3.78;3.00;;;;;;;12.19;87.73;98838.97;330183;29;16081;-70
2023/04/22 00:55:16;;;;;;;5.90;2.92;;;;;;;12.23;87.92;98839.66;332214;29;4596;-70
2023/04/22 00:55:28;;;;;;;5.88;3.00;;;;;;;12.26;88.21;98840.34;329715;29;9293;-70
2023/04/22 00:55:40;;;;;;;4.10;3.10;;;;;;;12.27;88.19;98844.63;331867;29;4541;-70
2023/04/22 00:55:53;;;;;;;4.13;3.00;;;;;;;12.30;88.16;98836.66;333044;29;4674;-70
2023/04/22 00:56:05;;;;;;;4.18;2.97;;;;;;;12.33;88.54;98830.44;331025;29;17908;-70
2023/04/22 00:56:22;;;;;;;4.07;2.88;;;;;;;12.36;88.48;98841.53;333306;29;5193;-70
2023/04/22 00:56:36;;;;;;;3.25;2.45;;;;;;;12.41;88.55;98840.44;331019;29;17495;-70
2023/04/22 00:56:48;;;;;;;2.88;2.47;;;;;;;12.44;88.71;98835.09;329075;29;5342;-70
2023/04/22 00:57:02;;;;;;;3.80;2.80;;;;;;;12.46;88.80;98841.06;332247;29;5006;-70
2023/04/22 00:57:14;;;;;;;3.88;2.90;;;;;;;12.43;88.10;98836.84;329755;29;17890;-70
2023/04/22 00:57:29;;;;;;;3.47;2.97;;;;;;;12.44;88.10;98832.50;332484;29;4560;-70
2023/04/22 00:57:42;;;;;;;3.88;2.90;;;;;;;12.45;87.99;98831.56;329784;29;17793;-71
2023/04/22 00:57:57;;;;;;;3.92;2.90;;;;;;;12.47;87.90;98837.53;329625;29;17363;-71
2023/04/22 00:58:09;;;;;;;3.20;2.83;;;;;;;12.48;88.28;98839.22;329801;29;18387;-70
2023/04/22 00:58:24;;;;;;;5.15;2.80;;;;;;;12.51;88.72;98839.03;332960;29;4602;-70
2023/04/22 00:58:36;;;;;;;5.55;2.90;;;;;;;12.54;88.68;98836.28;330838;29;18812;-71
2023/04/22 00:58:48;;;;;;;5.07;2.75;;;;;;;12.55;88.86;98840.56;329921;29;18905;-70
2023/04/22 00:59:01;;;;;;;5.18;2.53;;;;;;;12.58;88.56;98840.41;332012;29;5457;-70
2023/04/22 00:59:13;;;;;;;5.03;2.58;;;;;;;12.60;88.38;98838.56;331580;29;10305;-71
2023/04/22 00:59:25;;;;;;;5.07;2.70;;;;;;;12.61;88.86;98840.22;331298;29;17204;-70
2023/04/22 00:59:37;;;;;;;5.15;2.70;;;;;;;12.61;89.04;98835.00;333475;29;4509;-71
2023/04/22 00:59:50;;;;;;;3.65;2.80;;;;;;;12.63;88.86;98832.31;330693;29;15388;-71
2023/04/22 01:00:04;;;;;;;3.90;2.90;;;;;;;12.62;88.29;98836.72;333598;29;4583;-70